Time;durP1;ratioP1;P1;durP2;ratioP2;P2;SDS_P1;SDS_P2;PMS_P1;PMS_P2;Temp;Humidity;BMP_temperature;BMP_pressure;BME280_temperature;BME280_humidity;BME280_pressure;Samples;Min_cycle;Max_cycle;Signal;HPM_P1;HPM_P2
2021/03/25 00:01:57;;;;;;;32.47;30.55;;;;;;;;;;5022171;28;20050;-45
2021/03/25 00:04:24;;;;;;;32.40;30.42;;;;;;;;;;5021811;28;20296;-43
2021/03/25 00:06:54;;;;;;;33.05;31.20;;;;;;;;;;5022261;28;20058;-46
2021/03/25 00:09:22;;;;;;;32.20;30.52;;;;;;;;;;5029632;28;20045;-44
2021/03/25 00:11:48;;;;;;;32.33;30.50;;;;;;;;;;5024719;28;20037;-46
2021/03/25 00:14:15;;;;;;;30.90;29.17;;;;;;;;;;5023665;28;20382;-44
2021/03/25 00:16:41;;;;;;;33.42;31.45;;;;;;;;;;5029902;28;20052;-47
2021/03/25 00:19:12;;;;;;;31.20;29.48;;;;;;;;;;5023051;28;20030;-44
2021/03/25 00:21:38;;;;;;;36.63;34.05;;;;;;;;;;5028213;28;20042;-44
2021/03/25 00:24:05;;;;;;;34.42;32.00;;;;;;;;;;5026789;28;20052;-46
2021/03/25 00:26:31;;;;;;;36.80;34.13;;;;;;;;;;5026605;28;20053;-45
2021/03/25 00:28:58;;;;;;;33.53;31.45;;;;;;;;;;5029828;28;20061;-44
2021/03/25 00:31:24;;;;;;;31.77;30.08;;;;;;;;;;5016949;28;20050;-44
2021/03/25 00:33:59;;;;;;;32.30;30.70;;;;;;;;;;5016362;28;20056;-44
2021/03/25 00:36:25;;;;;;;31.98;29.95;;;;;;;;;;5027292;28;20033;-44
2021/03/25 00:38:52;;;;;;;34.33;32.13;;;;;;;;;;5021594;28;20651;-44
2021/03/25 00:41:18;;;;;;;34.40;32.20;;;;;;;;;;5025154;28;20033;-43
2021/03/25 00:43:44;;;;;;;33.95;32.00;;;;;;;;;;5020427;28;20065;-44
2021/03/25 00:46:11;;;;;;;33.53;31.42;;;;;;;;;;5022038;28;20045;-43
2021/03/25 00:48:37;;;;;;;36.13;33.78;;;;;;;;;;5028049;28;20041;-46
2021/03/25 00:51:04;;;;;;;34.85;32.83;;;;;;;;;;5023146;28;20069;-43
2021/03/25 00:53:32;;;;;;;36.40;34.13;;;;;;;;;;5016961;28;20168;-46
2021/03/25 00:55:58;;;;;;;33.53;31.30;;;;;;;;;;5026694;28;20057;-43
2021/03/25 00:58:25;;;;;;;35.85;33.47;;;;;;;;;;5026364;28;20068;-45
2021/03/25 01:00:51;;;;;;;33.08;31.33;;;;;;;;;;5029379;28;20046;-46
2021/03/25 01:03:19;;;;;;;32.67;30.98;;;;;;;;;;5027847;28;20061;-44
2021/03/25 01:05:45;;;;;;;30.83;29.17;;;;;;;;;;5032014;28;20405;-45
2021/03/25 01:08:12;;;;;;;33.20;31.40;;;;;;;;;;5027056;28;20049;-47
2021/03/25 01:10:41;;;;;;;31.63;30.27;;;;;;;;;;5023139;28;20037;-44
2021/03/25 01:13:11;;;;;;;29.92;28.52;;;;;;;;;;5023097;28;20033;-45
2021/03/25 01:15:38;;;;;;;31.77;30.20;;;;;;;;;;5024060;28;20041;-42
2021/03/25 01:18:05;;;;;;;38.15;35.42;;;;;;;;;;5018544;28;20099;-44
2021/03/25 01:20:34;;;;;;;37.08;34.65;;;;;;;;;;5027546;28;20037;-45
2021/03/25 01:23:00;;;;;;;35.78;33.67;;;;;;;;;;5026375;28;20052;-45
2021/03/25 01:25:27;;;;;;;34.95;32.90;;;;;;;;;;5032809;28;20609;-44
2021/03/25 01:27:58;;;;;;;34.53;32.13;;;;;;;;;;5024201;28;20064;-44
2021/03/25 01:30:25;;;;;;;34.05;32.17;;;;;;;;;;5026748;28;20053;-43
2021/03/25 01:32:52;;;;;;;34.35;32.28;;;;;;;;;;5029688;28;20049;-44
2021/03/25 01:35:19;;;;;;;36.55;34.55;;;;;;;;;;5024379;28;20057;-42
2021/03/25 01:37:46;;;;;;;36.33;34.22;;;;;;;;;;5033309;28;20569;-43
2021/03/25 01:40:14;;;;;;;37.03;34.47;;;;;;;;;;5019366;28;20038;-44
2021/03/25 01:42:43;;;;;;;37.45;35.22;;;;;;;;;;5022769;28;20061;-44
2021/03/25 01:45:28;;;;;;;35.83;33.53;;;;;;;;;;5024510;28;20073;-44
2021/03/25 01:47:59;;;;;;;37.72;35.47;;;;;;;;;;5021316;28;20433;-43
2021/03/25 01:50:26;;;;;;;37.78;35.55;;;;;;;;;;5019092;28;20056;-44
2021/03/25 01:52:52;;;;;;;35.13;32.78;;;;;;;;;;5030344;28;20048;-44
2021/03/25 01:55:30;;;;;;;37.17;34.55;;;;;;;;;;5025747;28;20036;-44
2021/03/25 01:58:02;;;;;;;37.80;35.38;;;;;;;;;;5020456;28;20037;-44
2021/03/25 02:00:37;;;;;;;37.63;34.97;;;;;;;;;;5026701;28;20034;-45
2021/03/25 02:03:18;;;;;;;36.33;34.22;;;;;;;;;;5027102;28;20049;-45
2021/03/25 02:05:46;;;;;;;38.73;36.07;;;;;;;;;;5030381;28;20038;-43
2021/03/25 02:08:20;;;;;;;37.53;35.30;;;;;;;;;;5023392;28;20807;-43
2021/03/25 02:11:06;;;;;;;35.35;33.17;;;;;;;;;;5018642;28;20048;-45
2021/03/25 02:14:07;;;;;;;38.70;36.40;;;;;;;;;;5028124;28;20040;-44
2021/03/25 02:16:37;;;;;;;38.40;35.83;;;;;;;;;;5043295;28;20778;-47
2021/03/25 02:19:17;;;;;;;33.90;31.85;;;;;;;;;;5037469;28;20049;-43
2021/03/25 02:22:01;;;;;;;35.38;33.15;;;;;;;;;;5031454;28;20045;-43
2021/03/25 02:24:40;;;;;;;38.17;35.17;;;;;;;;;;5043740;28;20052;-43
2021/03/25 02:27:16;;;;;;;40.38;37.58;;;;;;;;;;5045122;28;20067;-45
2021/03/25 02:29:51;;;;;;;37.90;35.53;;;;;;;;;;5042107;28;20537;-44
2021/03/25 02:32:40;;;;;;;39.22;36.50;;;;;;;;;;5042174;28;20064;-44
2021/03/25 02:35:10;;;;;;;39.55;36.97;;;;;;;;;;5031669;28;20072;-45
2021/03/25 02:37:38;;;;;;;39.22;36.55;;;;;;;;;;5046215;28;20402;-48
2021/03/25 02:40:07;;;;;;;38.65;36.03;;;;;;;;;;5030752;28;20061;-44
2021/03/25 02:42:38;;;;;;;38.72;35.90;;;;;;;;;;5022421;28;20548;-43
2021/03/25 02:45:06;;;;;;;36.92;34.67;;;;;;;;;;5026144;28;20107;-45
2021/03/25 02:47:34;;;;;;;38.28;36.05;;;;;;;;;;5037395;28;20037;-45
2021/03/25 02:50:04;;;;;;;37.50;34.95;;;;;;;;;;5024251;28;20085;-43
2021/03/25 02:52:34;;;;;;;39.65;36.95;;;;;;;;;;5024419;28;20048;-45
2021/03/25 02:55:03;;;;;;;35.88;33.58;;;;;;;;;;5030223;28;20033;-45
2021/03/25 02:57:52;;;;;;;36.38;34.47;;;;;;;;;;5025342;28;20046;-45
2021/03/25 03:00:22;;;;;;;34.75;32.70;;;;;;;;;;5021410;28;20061;-47
2021/03/25 03:02:50;;;;;;;36.90;34.95;;;;;;;;;;5027321;28;20418;-46
2021/03/25 03:05:22;;;;;;;35.63;33.42;;;;;;;;;;5026251;28;20046;-43
2021/03/25 03:07:53;;;;;;;33.75;31.88;;;;;;;;;;5024010;28;20037;-45
2021/03/25 03:10:21;;;;;;;33.22;31.20;;;;;;;;;;5030996;28;20436;-45
2021/03/25 03:12:49;;;;;;;35.50;33.30;;;;;;;;;;5024341;28;20044;-45
2021/03/25 03:15:19;;;;;;;33.13;31.55;;;;;;;;;;5025146;28;20047;-46
2021/03/25 03:18:03;;;;;;;37.47;35.17;;;;;;;;;;5030239;28;20025;-42
2021/03/25 03:20:30;;;;;;;;;;;;;;;;;;5023041;28;20033;-44
2021/03/25 03:22:57;;;;;;;39.42;36.72;;;;;;;;;;5029128;28;20005;-44
2021/03/25 03:25:24;;;;;;;39.13;36.83;;;;;;;;;;5026126;28;20056;-44
2021/03/25 03:28:12;;;;;;;37.35;35.10;;;;;;;;;;5024638;28;20045;-45
2021/03/25 03:30:39;;;;;;;36.90;34.60;;;;;;;;;;5020849;28;20052;-44
2021/03/25 03:33:14;;;;;;;35.85;33.75;;;;;;;;;;5024971;28;20739;-43
2021/03/25 03:35:44;;;;;;;36.53;34.33;;;;;;;;;;5017617;28;20041;-44
2021/03/25 03:38:13;;;;;;;37.28;35.28;;;;;;;;;;5014158;28;20121;-44
2021/03/25 03:40:41;;;;;;;35.10;33.10;;;;;;;;;;5020627;28;20037;-44
2021/03/25 03:43:09;;;;;;;37.00;34.70;;;;;;;;;;5028863;28;20049;-45
2021/03/25 03:45:38;;;;;;;36.33;34.25;;;;;;;;;;5020816;28;20568;-44
2021/03/25 03:48:07;;;;;;;39.15;36.72;;;;;;;;;;5025555;28;20045;-44
2021/03/25 03:50:38;;;;;;;34.78;33.17;;;;;;;;;;5030379;28;20537;-43
2021/03/25 03:53:05;;;;;;;35.28;33.47;;;;;;;;;;5025543;28;20037;-45
2021/03/25 03:55:31;;;;;;;36.08;34.22;;;;;;;;;;5029601;28;20038;-43
2021/03/25 03:58:05;;;;;;;37.40;35.25;;;;;;;;;;5027841;28;20030;-42
2021/03/25 04:00:31;;;;;;;;;;;;;;;;;;5024115;28;20120;-44
2021/03/25 04:03:07;;;;;;;34.88;32.92;;;;;;;;;;5029971;28;19929;-43
2021/03/25 04:05:40;;;;;;;40.67;37.22;;;;;;;;;;5024176;28;20054;-45
2021/03/25 04:08:06;;;;;;;40.38;37.70;;;;;;;;;;5024041;28;20363;-45
2021/03/25 04:10:38;;;;;;;39.05;36.85;;;;;;;;;;5026196;28;20042;-46
2021/03/25 04:13:18;;;;;;;38.60;36.17;;;;;;;;;;5020660;28;20049;-45
2021/03/25 04:15:49;;;;;;;38.47;36.30;;;;;;;;;;5018674;28;20048;-44
2021/03/25 04:18:19;;;;;;;39.15;36.47;;;;;;;;;;5028200;28;20072;-46
2021/03/25 04:20:47;;;;;;;39.30;37.35;;;;;;;;;;5022416;28;20100;-44
2021/03/25 04:23:16;;;;;;;36.83;34.83;;;;;;;;;;5022499;28;20128;-44
2021/03/25 04:26:22;;;;;;;38.33;36.13;;;;;;;;;;5026294;28;20038;-44
2021/03/25 04:28:51;;;;;;;37.50;35.03;;;;;;;;;;5036035;28;20069;-44
2021/03/25 04:31:18;;;;;;;37.63;35.42;;;;;;;;;;5031906;28;20080;-43
2021/03/25 04:33:45;;;;;;;39.30;36.95;;;;;;;;;;5033784;28;20061;-47
2021/03/25 04:36:14;;;;;;;40.00;37.80;;;;;;;;;;5031655;28;20042;-44
2021/03/25 04:38:42;;;;;;;38.30;36.40;;;;;;;;;;5031689;28;20040;-44
2021/03/25 04:41:10;;;;;;;37.33;35.28;;;;;;;;;;5031034;28;20052;-44
2021/03/25 04:43:39;;;;;;;37.53;35.35;;;;;;;;;;5031590;28;20128;-45
2021/03/25 04:46:20;;;;;;;39.72;36.75;;;;;;;;;;5031995;28;20057;-44
2021/03/25 04:48:47;;;;;;;38.35;36.25;;;;;;;;;;5026204;28;20098;-43
2021/03/25 04:51:18;;;;;;;40.03;37.42;;;;;;;;;;5035048;28;20053;-45
2021/03/25 04:53:45;;;;;;;39.50;37.38;;;;;;;;;;5031089;28;20042;-45
2021/03/25 04:56:16;;;;;;;37.53;35.20;;;;;;;;;;5032971;28;20045;-44
2021/03/25 04:58:48;;;;;;;39.70;37.50;;;;;;;;;;5031166;28;20460;-48
2021/03/25 05:01:20;;;;;;;41.53;39.22;;;;;;;;;;5024625;28;20037;-44
2021/03/25 05:03:48;;;;;;;44.97;41.80;;;;;;;;;;5031682;28;20041;-45
2021/03/25 05:06:21;;;;;;;57.50;52.30;;;;;;;;;;5027912;28;20050;-44
2021/03/25 05:08:48;;;;;;;60.63;54.60;;;;;;;;;;5028339;28;20434;-43
2021/03/25 05:11:17;;;;;;;53.95;48.80;;;;;;;;;;5031716;28;20045;-43
2021/03/25 05:14:05;;;;;;;54.45;49.35;;;;;;;;;;5020432;28;20057;-46
2021/03/25 05:16:38;;;;;;;52.50;48.08;;;;;;;;;;5024994;28;20414;-44
2021/03/25 05:19:30;;;;;;;46.13;42.75;;;;;;;;;;5031177;28;20658;-47
2021/03/25 05:22:02;;;;;;;42.08;39.58;;;;;;;;;;5021720;28;20073;-45
2021/03/25 05:25:07;;;;;;;38.00;35.78;;;;;;;;;;5020013;28;20046;-46
2021/03/25 05:27:46;;;;;;;41.95;39.55;;;;;;;;;;4993400;28;20046;-45
2021/03/25 05:30:27;;;;;;;41.80;39.17;;;;;;;;;;5007215;28;20153;-45
2021/03/25 05:33:00;;;;;;;42.83;40.13;;;;;;;;;;5003518;28;20046;-44
2021/03/25 05:35:37;;;;;;;40.75;38.08;;;;;;;;;;4994740;28;20526;-44
2021/03/25 05:38:04;;;;;;;39.60;37.10;;;;;;;;;;5007527;28;20042;-44
2021/03/25 05:40:34;;;;;;;38.22;35.92;;;;;;;;;;5006074;28;20120;-45
2021/03/25 05:43:23;;;;;;;41.05;38.63;;;;;;;;;;5008023;28;20046;-46
2021/03/25 05:45:54;;;;;;;40.47;37.97;;;;;;;;;;5003495;28;20823;-43
2021/03/25 05:48:23;;;;;;;40.00;37.83;;;;;;;;;;5009611;28;20046;-46
2021/03/25 05:50:56;;;;;;;40.63;37.95;;;;;;;;;;5006219;28;20157;-43
2021/03/25 05:53:35;;;;;;;39.90;37.50;;;;;;;;;;5005222;28;20046;-45
2021/03/25 05:56:07;;;;;;;40.50;38.22;;;;;;;;;;5005946;28;20120;-45
2021/03/25 05:58:39;;;;;;;38.05;35.58;;;;;;;;;;5019443;28;20604;-43
2021/03/25 06:01:24;;;;;;;39.80;37.83;;;;;;;;;;5026581;28;20046;-45
2021/03/25 06:04:08;;;;;;;42.45;39.53;;;;;;;;;;5033194;28;20052;-44
2021/03/25 06:06:49;;;;;;;40.50;38.20;;;;;;;;;;5027073;28;20041;-44
2021/03/25 06:09:18;;;;;;;42.45;39.85;;;;;;;;;;5026158;28;20052;-43
2021/03/25 06:11:52;;;;;;;38.53;36.55;;;;;;;;;;5032754;28;20421;-45
2021/03/25 06:14:19;;;;;;;36.08;34.05;;;;;;;;;;5025182;28;20125;-44
2021/03/25 06:17:04;;;;;;;34.95;33.10;;;;;;;;;;5029472;28;20051;-45
2021/03/25 06:19:50;;;;;;;35.75;34.10;;;;;;;;;;5031545;28;20087;-45
2021/03/25 06:22:19;;;;;;;34.03;32.35;;;;;;;;;;5025583;28;20065;-46
2021/03/25 06:24:50;;;;;;;36.83;34.92;;;;;;;;;;5030128;28;20056;-47
2021/03/25 06:27:37;;;;;;;37.55;35.70;;;;;;;;;;5027527;28;20056;-46
2021/03/25 06:30:10;;;;;;;36.95;35.17;;;;;;;;;;5026401;28;20037;-45
2021/03/25 06:32:56;;;;;;;36.25;34.25;;;;;;;;;;5029669;28;20088;-48
2021/03/25 06:35:23;;;;;;;33.75;32.10;;;;;;;;;;5028497;28;20038;-47
2021/03/25 06:38:03;;;;;;;32.13;30.50;;;;;;;;;;5024629;28;20037;-47
2021/03/25 06:40:34;;;;;;;32.67;31.20;;;;;;;;;;5031989;28;20168;-44
2021/03/25 06:43:04;;;;;;;31.88;30.40;;;;;;;;;;5026927;28;20041;-47
2021/03/25 06:46:00;;;;;;;30.63;29.27;;;;;;;;;;5024458;28;20096;-46
2021/03/25 06:48:36;;;;;;;32.85;31.08;;;;;;;;;;5047470;28;20057;-47
2021/03/25 06:51:22;;;;;;;25.63;24.20;;;;;;;;;;5045323;28;20619;-47
2021/03/25 06:53:58;;;;;;;21.15;18.98;;;;;;;;;;5044460;28;20048;-45
2021/03/25 06:56:36;;;;;;;23.50;18.20;;;;;;;;;;5049464;28;20106;-47
2021/03/25 06:59:05;;;;;;;23.23;21.08;;;;;;;;;;5044852;28;20045;-47
2021/03/25 07:01:45;;;;;;;26.27;23.80;;;;;;;;;;5045339;28;20095;-48
2021/03/25 07:04:14;;;;;;;18.73;17.05;;;;;;;;;;5049554;28;20048;-46
2021/03/25 07:06:41;;;;;;;29.45;26.85;;;;;;;;;;5030374;28;20663;-49
2021/03/25 07:09:08;;;;;;;23.45;21.85;;;;;;;;;;5045593;28;20382;-45
2021/03/25 07:11:35;;;;;;;19.95;18.02;;;;;;;;;;5043909;28;20053;-46
2021/03/25 07:14:06;;;;;;;16.50;15.20;;;;;;;;;;5042954;28;20465;-46
2021/03/25 07:16:36;;;;;;;17.90;16.33;;;;;;;;;;5048138;28;20041;-47
2021/03/25 07:19:11;;;;;;;52.05;33.17;;;;;;;;;;5043071;28;20128;-47
2021/03/25 07:21:41;;;;;;;25.08;22.30;;;;;;;;;;5043325;28;20049;-46
2021/03/25 07:24:09;;;;;;;25.15;20.75;;;;;;;;;;5041549;28;20429;-48
2021/03/25 07:26:37;;;;;;;19.27;17.42;;;;;;;;;;5021652;28;20092;-46
2021/03/25 07:29:05;;;;;;;17.98;16.40;;;;;;;;;;5028722;28;20124;-46
2021/03/25 07:31:39;;;;;;;20.38;17.30;;;;;;;;;;5026815;28;20041;-46
2021/03/25 07:34:06;;;;;;;22.55;17.92;;;;;;;;;;5025124;28;20030;-47
2021/03/25 07:36:34;;;;;;;24.88;22.40;;;;;;;;;;5030910;28;20053;-48
2021/03/25 07:39:03;;;;;;;22.40;19.85;;;;;;;;;;5024917;28;20049;-48
2021/03/25 07:41:31;;;;;;;29.60;26.48;;;;;;;;;;5027776;28;20493;-47
2021/03/25 07:43:58;;;;;;;29.13;25.98;;;;;;;;;;5028379;28;20065;-47
2021/03/25 07:46:24;;;;;;;24.35;22.05;;;;;;;;;;5024672;28;20045;-47
2021/03/25 07:49:02;;;;;;;22.27;20.42;;;;;;;;;;5030567;28;20052;-46
2021/03/25 07:51:40;;;;;;;17.85;15.27;;;;;;;;;;5024760;28;20053;-46
2021/03/25 07:54:10;;;;;;;16.42;15.07;;;;;;;;;;5024442;28;20042;-48
2021/03/25 07:56:51;;;;;;;15.68;14.18;;;;;;;;;;5028514;28;20040;-47
2021/03/25 07:59:27;;;;;;;15.00;13.65;;;;;;;;;;5018266;28;20053;-47
2021/03/25 08:01:53;;;;;;;15.50;14.10;;;;;;;;;;5015167;28;20132;-48
2021/03/25 08:04:31;;;;;;;14.93;13.38;;;;;;;;;;5027675;28;20095;-47
2021/03/25 08:06:59;;;;;;;17.65;13.88;;;;;;;;;;5022801;28;20045;-47
2021/03/25 08:09:26;;;;;;;17.52;15.90;;;;;;;;;;5017673;28;20041;-48
2021/03/25 08:11:53;;;;;;;12.55;11.48;;;;;;;;;;5039958;28;20099;-49
2021/03/25 08:14:19;;;;;;;10.48;9.63;;;;;;;;;;5024082;28;20077;-46
2021/03/25 08:16:47;;;;;;;11.10;10.07;;;;;;;;;;5029568;28;20045;-48
2021/03/25 08:19:20;;;;;;;9.77;9.10;;;;;;;;;;5023252;28;20095;-51
2021/03/25 08:22:03;;;;;;;6.88;6.50;;;;;;;;;;5026610;28;20046;-48
2021/03/25 08:24:35;;;;;;;6.60;6.13;;;;;;;;;;5028266;28;20459;-48
2021/03/25 08:27:20;;;;;;;7.30;6.97;;;;;;;;;;5023263;28;20128;-47
2021/03/25 08:29:46;;;;;;;6.82;6.63;;;;;;;;;;5027414;28;20088;-48
2021/03/25 08:32:13;;;;;;;7.65;5.75;;;;;;;;;;5027003;28;20053;-48
2021/03/25 08:34:59;;;;;;;4.78;4.57;;;;;;;;;;5025184;28;20038;-49
2021/03/25 08:37:40;;;;;;;5.55;5.35;;;;;;;;;;4999257;28;20379;-48
2021/03/25 08:40:15;;;;;;;5.93;5.45;;;;;;;;;;5007609;28;20540;-47
2021/03/25 08:42:44;;;;;;;6.82;6.28;;;;;;;;;;5006917;28;20045;-44
2021/03/25 08:45:19;;;;;;;6.45;5.93;;;;;;;;;;5008502;28;20065;-43
2021/03/25 08:47:55;;;;;;;6.90;5.20;;;;;;;;;;5006305;28;20053;-44
2021/03/25 08:50:39;;;;;;;5.93;5.43;;;;;;;;;;5006477;28;20048;-43
2021/03/25 08:53:16;;;;;;;5.50;5.30;;;;;;;;;;5007374;28;20036;-43
2021/03/25 08:55:44;;;;;;;5.20;4.90;;;;;;;;;;4990672;28;20038;-45
2021/03/25 08:58:17;;;;;;;4.75;4.65;;;;;;;;;;5006291;28;20053;-43
2021/03/25 09:00:45;;;;;;;4.30;4.20;;;;;;;;;;5007107;28;20049;-43
2021/03/25 09:03:21;;;;;;;4.43;4.05;;;;;;;;;;5005420;28;20053;-42
2021/03/25 09:06:02;;;;;;;6.63;3.97;;;;;;;;;;5007610;28;20132;-43
2021/03/25 09:08:30;;;;;;;4.35;4.10;;;;;;;;;;5007625;28;20061;-44
2021/03/25 09:11:00;;;;;;;3.72;3.13;;;;;;;;;;5004946;28;20060;-44
2021/03/25 09:13:28;;;;;;;3.85;3.75;;;;;;;;;;5010100;28;20073;-43
2021/03/25 09:15:56;;;;;;;8.35;4.13;;;;;;;;;;5021489;28;20134;-43
2021/03/25 09:18:29;;;;;;;6.28;3.92;;;;;;;;;;5019548;28;20038;-44
2021/03/25 09:20:58;;;;;;;3.50;3.30;;;;;;;;;;5030912;28;20042;-43
2021/03/25 09:23:30;;;;;;;2.80;2.70;;;;;;;;;;5024976;28;20052;-44
2021/03/25 09:25:58;;;;;;;3.15;3.03;;;;;;;;;;5032296;28;20379;-44
2021/03/25 09:28:44;;;;;;;5.45;3.63;;;;;;;;;;5027396;28;20065;-45
2021/03/25 09:31:12;;;;;;;3.63;3.25;;;;;;;;;;5025307;28;20100;-44
2021/03/25 09:33:45;;;;;;;4.28;3.97;;;;;;;;;;5015024;28;20037;-43
2021/03/25 09:36:18;;;;;;;3.03;2.92;;;;;;;;;;5018778;28;20121;-43
2021/03/25 09:38:59;;;;;;;3.53;2.53;;;;;;;;;;5026900;28;20508;-44
2021/03/25 09:41:26;;;;;;;3.80;3.50;;;;;;;;;;5032050;28;20081;-46
2021/03/25 09:43:55;;;;;;;3.67;3.35;;;;;;;;;;5020960;28;20398;-44
2021/03/25 09:46:45;;;;;;;3.85;2.83;;;;;;;;;;5018837;28;20053;-44
2021/03/25 09:49:14;;;;;;;3.88;3.13;;;;;;;;;;5029484;28;20111;-44
2021/03/25 09:51:41;;;;;;;2.72;2.53;;;;;;;;;;5025559;28;20056;-45
2021/03/25 09:54:21;;;;;;;5.13;2.80;;;;;;;;;;5031684;28;20057;-44
2021/03/25 09:57:07;;;;;;;2.85;2.15;;;;;;;;;;5028492;28;20060;-43
2021/03/25 09:59:46;;;;;;;2.60;2.10;;;;;;;;;;5025620;28;20034;-44
2021/03/25 10:02:12;;;;;;;2.60;2.40;;;;;;;;;;5031603;28;20508;-45
2021/03/25 10:04:39;;;;;;;2.22;2.08;;;;;;;;;;5027296;28;20113;-46
2021/03/25 10:07:12;;;;;;;2.47;2.38;;;;;;;;;;5026746;28;20030;-42
2021/03/25 10:09:48;;;;;;;2.78;2.22;;;;;;;;;;5031894;28;20043;-43
2021/03/25 10:12:34;;;;;;;2.22;1.80;;;;;;;;;;5024636;28;20281;-44
2021/03/25 10:15:00;;;;;;;1.95;1.85;;;;;;;;;;5026814;28;20045;-46
2021/03/25 10:17:43;;;;;;;2.50;2.30;;;;;;;;;;5030221;28;20413;-45
2021/03/25 10:20:10;;;;;;;;;;;;;;;;;;5025840;28;20068;-43
2021/03/25 10:22:36;;;;;;;1.90;1.75;;;;;;;;;;5029002;28;20465;-43
2021/03/25 10:25:05;;;;;;;1.80;1.70;;;;;;;;;;5028140;28;20037;-43
2021/03/25 10:27:39;;;;;;;1.75;1.65;;;;;;;;;;5025041;28;20379;-43
2021/03/25 10:30:07;;;;;;;4.55;1.50;;;;;;;;;;5032783;28;20057;-43
2021/03/25 10:32:36;;;;;;;1.88;1.58;;;;;;;;;;5025485;28;20423;-42
2021/03/25 10:35:05;;;;;;;2.42;1.90;;;;;;;;;;5028031;28;20061;-46
2021/03/25 10:37:39;;;;;;;1.73;1.63;;;;;;;;;;5030236;28;20040;-44
2021/03/25 10:40:24;;;;;;;4.32;2.10;;;;;;;;;;5025740;28;20040;-43
2021/03/25 10:42:58;;;;;;;6.25;2.28;;;;;;;;;;5017993;28;20559;-44
2021/03/25 10:45:37;;;;;;;1.90;1.70;;;;;;;;;;5028483;28;20060;-43
2021/03/25 10:48:18;;;;;;;1.70;1.60;;;;;;;;;;5024944;28;20053;-43
2021/03/25 10:51:10;;;;;;;1.23;1.23;;;;;;;;;;5030964;28;20533;-44
2021/03/25 10:53:38;;;;;;;1.90;1.55;;;;;;;;;;5007088;28;20442;-44
2021/03/25 10:56:07;;;;;;;5.43;1.63;;;;;;;;;;5001722;28;20054;-44
2021/03/25 10:58:36;;;;;;;1.70;1.60;;;;;;;;;;4999715;28;21963;-45
2021/03/25 11:01:04;;;;;;;2.63;1.63;;;;;;;;;;5003066;28;20045;-46
2021/03/25 11:03:37;;;;;;;1.70;1.60;;;;;;;;;;5004995;28;20038;-45
2021/03/25 11:06:04;;;;;;;1.73;1.63;;;;;;;;;;5004390;28;20042;-44
2021/03/25 11:08:35;;;;;;;3.33;1.85;;;;;;;;;;5002623;28;20046;-44
2021/03/25 11:11:05;;;;;;;2.03;1.60;;;;;;;;;;5008541;28;20058;-44
2021/03/25 11:13:32;;;;;;;1.92;1.80;;;;;;;;;;4997813;28;20467;-44
2021/03/25 11:16:14;;;;;;;3.50;2.38;;;;;;;;;;5000196;28;20479;-44
2021/03/25 11:18:50;;;;;;;1.40;1.30;;;;;;;;;;5009412;28;20072;-44
2021/03/25 11:21:20;;;;;;;1.98;1.95;;;;;;;;;;5001219;28;20096;-43
2021/03/25 11:23:47;;;;;;;1.50;1.40;;;;;;;;;;5006010;28;20245;-45
2021/03/25 11:26:15;;;;;;;3.67;1.48;;;;;;;;;;4999859;28;20074;-44
2021/03/25 11:28:42;;;;;;;1.50;1.40;;;;;;;;;;5001076;28;20030;-43
2021/03/25 11:31:23;;;;;;;1.73;1.40;;;;;;;;;;5012755;28;20388;-43
2021/03/25 11:33:51;;;;;;;2.95;2.03;;;;;;;;;;5024079;28;20120;-44
2021/03/25 11:36:38;;;;;;;1.60;1.50;;;;;;;;;;5026389;28;20421;-44
2021/03/25 11:39:25;;;;;;;4.20;1.92;;;;;;;;;;5027855;28;20038;-44
2021/03/25 11:41:54;;;;;;;3.22;1.83;;;;;;;;;;5023892;28;20041;-46
2021/03/25 11:44:54;;;;;;;1.35;1.20;;;;;;;;;;5026775;28;20540;-44
2021/03/25 11:47:20;;;;;;;1.65;1.40;;;;;;;;;;4996501;28;20623;-44
2021/03/25 11:49:47;;;;;;;1.50;1.20;;;;;;;;;;5000554;28;20572;-44
2021/03/25 11:52:13;;;;;;;2.88;1.20;;;;;;;;;;5000134;28;20049;-45
2021/03/25 11:54:42;;;;;;;2.28;1.85;;;;;;;;;;4998474;28;20054;-45
2021/03/25 11:57:20;;;;;;;4.03;1.27;;;;;;;;;;5002355;28;20085;-42
2021/03/25 11:59:46;;;;;;;3.08;1.05;;;;;;;;;;5006015;28;20058;-45
2021/03/25 12:02:20;;;;;;;2.97;1.08;;;;;;;;;;5002018;28;20042;-44
2021/03/25 12:04:48;;;;;;;4.82;1.60;;;;;;;;;;5004681;28;20053;-42
2021/03/25 12:07:17;;;;;;;4.40;2.08;;;;;;;;;;5005209;28;20181;-44
2021/03/25 12:10:02;;;;;;;3.05;1.30;;;;;;;;;;5001313;28;20070;-45
2021/03/25 12:12:28;;;;;;;1.00;1.00;;;;;;;;;;4992627;28;20054;-45
2021/03/25 12:14:54;;;;;;;1.55;1.10;;;;;;;;;;5004408;28;20050;-45
2021/03/25 12:17:21;;;;;;;0.90;0.90;;;;;;;;;;5002873;28;20045;-43
2021/03/25 12:19:51;;;;;;;2.33;0.98;;;;;;;;;;5006733;28;20050;-46
2021/03/25 12:22:28;;;;;;;0.90;0.90;;;;;;;;;;5007213;28;20048;-46
2021/03/25 12:24:55;;;;;;;2.13;1.20;;;;;;;;;;5027061;28;20034;-47
2021/03/25 12:27:24;;;;;;;1.20;1.10;;;;;;;;;;5026940;28;20716;-43
2021/03/25 12:29:51;;;;;;;2.28;1.10;;;;;;;;;;5023522;28;20068;-44
2021/03/25 12:32:20;;;;;;;1.55;1.55;;;;;;;;;;5028791;28;20481;-45
2021/03/25 12:35:08;;;;;;;1.20;0.90;;;;;;;;;;5025818;28;20129;-45
2021/03/25 12:37:35;;;;;;;7.10;0.90;;;;;;;;;;5023381;28;20046;-45
2021/03/25 12:40:02;;;;;;;0.80;0.80;;;;;;;;;;5030509;28;20049;-47
2021/03/25 12:42:29;;;;;;;1.20;0.90;;;;;;;;;;5022032;28;20037;-46
2021/03/25 12:44:56;;;;;;;0.80;0.80;;;;;;;;;;5022718;28;20057;-47
2021/03/25 12:47:23;;;;;;;0.90;0.90;;;;;;;;;;5028587;28;20482;-45
2021/03/25 12:50:02;;;;;;;0.70;0.70;;;;;;;;;;5027304;28;20099;-45
2021/03/25 12:52:29;;;;;;;0.80;0.77;;;;;;;;;;5023143;28;20096;-46
2021/03/25 12:54:56;;;;;;;0.70;0.70;;;;;;;;;;5026772;28;20065;-43
2021/03/25 12:57:25;;;;;;;0.73;0.73;;;;;;;;;;5027862;28;20069;-43
2021/03/25 12:59:54;;;;;;;0.90;0.80;;;;;;;;;;5032621;28;20037;-45
2021/03/25 13:02:21;;;;;;;0.77;0.77;;;;;;;;;;5022537;28;20489;-44
2021/03/25 13:04:48;;;;;;;0.80;0.80;;;;;;;;;;5020869;28;20050;-45
2021/03/25 13:07:15;;;;;;;0.70;0.70;;;;;;;;;;5023049;28;20586;-43
2021/03/25 13:09:41;;;;;;;1.38;1.00;;;;;;;;;;5024707;28;20044;-44
2021/03/25 13:12:08;;;;;;;1.63;0.80;;;;;;;;;;5032691;28;20052;-46
2021/03/25 13:14:34;;;;;;;0.98;0.70;;;;;;;;;;5026717;28;20041;-43
2021/03/25 13:17:00;;;;;;;1.25;0.80;;;;;;;;;;5030985;28;20037;-45
2021/03/25 13:19:46;;;;;;;2.50;0.88;;;;;;;;;;5026690;28;20620;-44
2021/03/25 13:22:13;;;;;;;1.95;0.80;;;;;;;;;;5023647;28;20052;-45
2021/03/25 13:24:39;;;;;;;1.17;0.70;;;;;;;;;;5024330;28;20048;-44
2021/03/25 13:27:06;;;;;;;1.35;0.90;;;;;;;;;;5025430;28;20417;-45
2021/03/25 13:29:32;;;;;;;1.52;1.35;;;;;;;;;;5028398;28;21053;-45
2021/03/25 13:31:58;;;;;;;1.52;1.25;;;;;;;;;;5029686;28;20049;-44
2021/03/25 13:34:25;;;;;;;1.95;0.80;;;;;;;;;;5026499;28;20417;-43
2021/03/25 13:36:51;;;;;;;9.68;3.55;;;;;;;;;;5031499;28;20047;-45
2021/03/25 13:39:18;;;;;;;2.78;0.98;;;;;;;;;;5026743;28;20037;-44
2021/03/25 13:41:44;;;;;;;3.25;1.20;;;;;;;;;;5029294;28;20113;-43
2021/03/25 13:44:10;;;;;;;0.70;0.70;;;;;;;;;;5030562;28;20593;-44
2021/03/25 13:46:36;;;;;;;0.75;0.73;;;;;;;;;;5026528;28;20042;-46
2021/03/25 13:49:03;;;;;;;6.28;1.23;;;;;;;;;;5021055;28;20490;-43
2021/03/25 13:51:30;;;;;;;0.70;0.70;;;;;;;;;;5027223;28;20045;-43
2021/03/25 13:53:56;;;;;;;1.40;0.80;;;;;;;;;;5025675;28;20417;-46
2021/03/25 13:56:22;;;;;;;1.10;0.70;;;;;;;;;;5022399;28;20034;-44
2021/03/25 13:58:49;;;;;;;1.02;0.70;;;;;;;;;;5018804;28;20041;-43
2021/03/25 14:01:15;;;;;;;1.00;1.00;;;;;;;;;;5016889;28;20038;-45
2021/03/25 14:03:42;;;;;;;0.80;0.80;;;;;;;;;;5027554;28;20136;-46
2021/03/25 14:06:08;;;;;;;0.70;0.70;;;;;;;;;;5025585;28;20396;-43
2021/03/25 14:08:35;;;;;;;0.95;0.85;;;;;;;;;;5031146;28;20470;-45
2021/03/25 14:11:01;;;;;;;0.70;0.70;;;;;;;;;;5025675;28;20596;-44
2021/03/25 14:13:27;;;;;;;0.70;0.70;;;;;;;;;;5030054;28;20645;-44
2021/03/25 14:15:54;;;;;;;0.98;0.70;;;;;;;;;;5029082;28;20405;-43
2021/03/25 14:18:22;;;;;;;0.77;0.77;;;;;;;;;;5025466;28;21694;-44
2021/03/25 14:20:49;;;;;;;0.70;0.70;;;;;;;;;;5030161;28;20128;-44
2021/03/25 14:23:17;;;;;;;2.92;0.70;;;;;;;;;;5019842;28;20037;-44
2021/03/25 14:25:44;;;;;;;1.55;0.70;;;;;;;;;;5024782;28;20038;-44
2021/03/25 14:28:12;;;;;;;1.48;0.68;;;;;;;;;;5028148;28;20540;-44
2021/03/25 14:30:39;;;;;;;0.95;0.70;;;;;;;;;;5025343;28;20095;-45
2021/03/25 14:33:06;;;;;;;1.20;0.70;;;;;;;;;;5024845;28;20657;-44
2021/03/25 14:35:33;;;;;;;0.75;0.75;;;;;;;;;;5026587;28;20041;-44
2021/03/25 14:38:01;;;;;;;0.80;0.80;;;;;;;;;;5026447;28;20025;-43
2021/03/25 14:40:27;;;;;;;1.92;0.70;;;;;;;;;;5027089;28;20040;-43
2021/03/25 14:42:54;;;;;;;2.22;0.70;;;;;;;;;;5023666;28;20052;-43
2021/03/25 14:45:21;;;;;;;1.38;0.60;;;;;;;;;;5032015;28;20048;-43
2021/03/25 14:47:48;;;;;;;2.50;0.80;;;;;;;;;;5023469;28;20040;-42
2021/03/25 14:50:24;;;;;;;0.80;0.80;;;;;;;;;;5027715;28;20062;-44
2021/03/25 14:52:50;;;;;;;0.60;0.60;;;;;;;;;;5016943;28;20041;-44
2021/03/25 14:55:18;;;;;;;1.40;0.70;;;;;;;;;;5024920;28;20041;-43